Augusta, Arkansas
Current Conditions -  °F | °C
As of 6:56 PM on Saturday 25 Oct 2014 (Local Time) from KSRC Reporting Station
Clear Clear  
Wind Chill: 70°   Ceiling: Unl
Heat Index: 70°   Visibility: 10mi
Dew Point: 65°   Wind: 0mph
Humidity: 84%   Direction: NA
Pressure: 30.03"   Gusts: NA
Location:  35.28°N, 91.37°W
Report Text: KSRC 252356Z AUTO 00000KT 10SM CLR 21/18 A3003 RMK AO2 SLP173 T02110183 10294 20211 53001 TSNO
Loading
Personal Weather Stations






























Interactive Weather Map
Tropical Storm Tracking
New forecast layout! Learn more

10-Day Weather Forecast

Advertisements
Track Severe Weather on mobile